Time;durP1;ratioP1;P1;durP2;ratioP2;P2;SDS_P1;SDS_P2;PMS_P1;PMS_P2;Temp;Humidity;BMP_temperature;BMP_pressure;BME280_temperature;BME280_humidity;BME280_pressure;Samples;Min_cycle;Max_cycle;Signal;HPM_P1;HPM_P2
2021/06/19 00:00:04;;;;;;;15.55;13.85;;;;;;;23.35;60.81;100011.91;10336632;28;20273;-75
2021/06/19 00:05:10;;;;;;;16.33;13.80;;;;;;;23.35;60.38;100014.66;10336566;28;20260;-76
2021/06/19 00:10:16;;;;;;;17.98;13.40;;;;;;;23.16;61.07;100025.47;10352171;28;20230;-75
2021/06/19 00:15:23;;;;;;;19.13;14.80;;;;;;;23.03;61.73;100041.91;10350711;28;20238;-75
2021/06/19 00:20:29;;;;;;;20.85;14.70;;;;;;;22.94;62.27;100040.47;10351380;28;20738;-75
2021/06/19 00:25:32;;;;;;;18.63;14.18;;;;;;;22.71;62.77;100036.28;10352614;28;20245;-75
2021/06/19 00:30:36;;;;;;;18.65;14.88;;;;;;;22.66;62.99;100032.50;10351740;28;20249;-75
2021/06/19 00:35:39;;;;;;;18.63;14.13;;;;;;;22.73;62.64;100038.81;10351911;28;20242;-75
2021/06/19 00:40:42;;;;;;;19.15;14.35;;;;;;;22.81;62.80;100040.47;10352089;28;20707;-75
2021/06/19 00:45:47;;;;;;;18.40;13.93;;;;;;;22.76;62.26;100043.84;10350100;28;20616;-75
2021/06/19 00:50:50;;;;;;;18.98;14.25;;;;;;;22.75;62.16;100044.91;10351494;28;20630;-76
2021/06/19 00:55:53;;;;;;;17.58;15.50;;;;;;;22.67;62.34;100053.34;10350382;28;20249;-75
2021/06/19 01:00:57;;;;;;;19.75;15.35;;;;;;;22.64;62.51;100056.50;10350738;28;20328;-75
2021/06/19 01:06:00;;;;;;;19.52;15.02;;;;;;;22.53;63.13;100060.72;10350053;28;20249;-75
2021/06/19 01:11:04;;;;;;;19.02;14.13;;;;;;;22.47;63.14;100067.88;10351559;28;20254;-75
2021/06/19 01:16:08;;;;;;;16.13;13.35;;;;;;;22.43;63.33;100073.94;10349665;28;20248;-75
2021/06/19 01:21:15;;;;;;;20.17;15.52;;;;;;;22.34;63.66;100082.34;10351065;28;20364;-75
2021/06/19 01:26:22;;;;;;;19.35;14.98;;;;;;;22.31;63.36;100090.97;10350926;28;20609;-75
2021/06/19 01:31:26;;;;;;;20.08;14.20;;;;;;;22.28;63.14;100094.13;10352036;28;20747;-76
2021/06/19 01:36:29;;;;;;;21.33;13.18;;;;;;;22.38;62.35;100087.41;10350411;28;20238;-76
2021/06/19 01:41:34;;;;;;;15.93;13.55;;;;;;;22.60;61.27;100086.22;10350378;28;20680;-76
2021/06/19 01:46:40;;;;;;;19.38;13.23;;;;;;;22.66;60.27;100096.31;10348941;28;20238;-76
2021/06/19 01:51:43;;;;;;;16.58;12.70;;;;;;;22.78;59.21;100099.25;10350336;28;21376;-76
2021/06/19 01:56:48;;;;;;;17.90;13.02;;;;;;;22.92;58.76;100106.38;10331028;28;20797;-75
2021/06/19 02:01:50;;;;;;;18.30;12.98;;;;;;;22.92;59.23;100105.56;10352215;28;20612;-75
2021/06/19 02:06:54;;;;;;;15.57;13.35;;;;;;;22.81;59.84;100097.97;10332936;28;20231;-75
2021/06/19 02:11:58;;;;;;;19.38;13.75;;;;;;;22.54;60.89;100108.91;10350938;28;20604;-76
2021/06/19 02:17:01;;;;;;;18.83;14.07;;;;;;;22.29;62.25;100122.34;10332270;28;20249;-76
2021/06/19 02:22:04;;;;;;;17.65;14.30;;;;;;;22.26;61.98;100125.50;10349549;28;20234;-76
2021/06/19 02:27:11;;;;;;;19.75;15.98;;;;;;;22.30;61.99;100115.84;10349625;28;20734;-76
2021/06/19 02:32:14;;;;;;;18.20;14.73;;;;;;;22.26;61.87;100130.97;10350221;28;20241;-76
2021/06/19 02:37:17;;;;;;;19.67;14.40;;;;;;;22.26;61.94;100128.22;10349331;28;20612;-75
2021/06/19 02:42:21;;;;;;;15.25;13.20;;;;;;;22.25;62.12;100132.88;10347001;28;21030;-75
2021/06/19 02:47:24;;;;;;;16.38;13.20;;;;;;;22.13;62.53;100145.44;10346838;28;20615;-75
2021/06/19 02:52:27;;;;;;;21.65;14.18;;;;;;;22.03;61.89;100139.53;10346765;28;20261;-76
2021/06/19 02:57:32;;;;;;;18.63;14.25;;;;;;;22.02;62.09;100148.78;10345885;28;20238;-75
2021/06/19 03:02:35;;;;;;;17.80;13.93;;;;;;;22.06;61.64;100136.38;10348031;28;20238;-76
2021/06/19 03:07:38;;;;;;;20.42;12.82;;;;;;;22.05;61.72;100141.03;10387203;28;20234;-76
2021/06/19 03:12:42;;;;;;;15.65;13.18;;;;;;;21.95;62.06;100148.75;10386600;28;20260;-75
2021/06/19 03:17:45;;;;;;;16.80;13.07;;;;;;;21.96;61.82;100146.88;10389528;28;20691;-76
2021/06/19 03:22:50;;;;;;;22.02;13.77;;;;;;;21.96;62.16;100147.72;10387544;28;20241;-75
2021/06/19 03:27:55;;;;;;;23.85;13.20;;;;;;;21.94;62.11;100140.75;10368226;28;20230;-75
2021/06/19 03:32:58;;;;;;;16.23;12.45;;;;;;;21.89;62.25;100142.22;10386727;28;20245;-75
2021/06/19 03:38:01;;;;;;;24.73;13.48;;;;;;;21.81;62.36;100127.91;10387856;28;20249;-76
2021/06/19 03:43:06;;;;;;;19.13;12.65;;;;;;;21.84;62.52;100138.41;10400805;28;20252;-75
2021/06/19 03:48:09;;;;;;;17.85;12.57;;;;;;;21.89;62.30;100144.13;10393321;28;20221;-75
2021/06/19 03:53:12;;;;;;;16.67;12.70;;;;;;;21.85;62.53;100151.88;10369927;28;20718;-76
2021/06/19 03:58:17;;;;;;;16.88;11.90;;;;;;;21.73;62.26;100148.00;10386429;28;20238;-76
2021/06/19 04:03:20;;;;;;;19.98;10.80;;;;;;;21.54;62.88;100159.69;10386226;28;20256;-76
2021/06/19 04:08:23;;;;;;;13.75;9.88;;;;;;;21.53;63.36;100155.25;10385286;28;20303;-76
2021/06/19 04:13:27;;;;;;;18.25;12.10;;;;;;;21.43;63.55;100163.84;10387410;28;20715;-75
2021/06/19 04:18:30;;;;;;;16.65;10.65;;;;;;;21.65;63.36;100170.88;10388332;28;20233;-76
2021/06/19 04:23:34;;;;;;;13.73;9.10;;;;;;;21.66;62.76;100169.00;10386774;28;20712;-76
2021/06/19 04:28:39;;;;;;;13.35;8.85;;;;;;;21.66;62.25;100182.66;10372614;28;20803;-76
2021/06/19 04:33:41;;;;;;;14.48;8.93;;;;;;;21.83;61.58;100178.59;10394095;28;20338;-75
2021/06/19 04:38:44;;;;;;;17.05;10.25;;;;;;;21.84;61.86;100204.03;10393416;28;20614;-76
2021/06/19 04:44:06;;;;;;;17.42;10.32;;;;;;;21.86;61.92;100205.53;10395471;28;20803;-75
2021/06/19 04:49:08;;;;;;;17.05;11.20;;;;;;;21.79;62.70;100217.47;10391424;28;20233;-75
2021/06/19 04:54:13;;;;;;;14.32;10.75;;;;;;;21.62;63.17;100217.75;10391956;28;20241;-75
2021/06/19 04:59:17;;;;;;;13.32;9.38;;;;;;;21.64;64.03;100225.78;10395468;28;20898;-76
2021/06/19 05:04:20;;;;;;;13.30;9.25;;;;;;;21.64;63.99;100228.50;10392134;28;20238;-75
2021/06/19 05:09:23;;;;;;;16.58;10.18;;;;;;;21.88;63.65;100244.41;10391876;28;20617;-75
2021/06/19 05:14:28;;;;;;;15.02;9.60;;;;;;;22.04;63.17;100237.78;10393679;28;20617;-75
2021/06/19 05:19:31;;;;;;;13.25;9.30;;;;;;;22.01;62.86;100237.34;10393463;28;20698;-75
2021/06/19 05:24:35;;;;;;;10.60;8.77;;;;;;;22.08;62.28;100258.22;10373805;28;20244;-75
2021/06/19 05:29:39;;;;;;;11.63;7.50;;;;;;;22.05;62.13;100260.50;10392606;28;20730;-75
2021/06/19 05:34:42;;;;;;;12.85;7.25;;;;;;;22.09;61.39;100256.31;10392693;28;20246;-75
2021/06/19 05:39:49;;;;;;;7.32;6.00;;;;;;;21.81;62.28;100243.56;10393745;28;20234;-75
2021/06/19 05:44:54;;;;;;;8.35;5.32;;;;;;;21.99;60.72;100256.69;10388173;28;20240;-75
2021/06/19 05:49:56;;;;;;;9.98;5.13;;;;;;;22.03;60.18;100257.97;10371786;28;20222;-75
2021/06/19 05:55:00;;;;;;;7.32;4.90;;;;;;;21.89;60.87;100265.25;10391319;28;20242;-75
2021/06/19 06:00:06;;;;;;;8.10;4.60;;;;;;;21.86;60.47;100267.56;10391419;28;20283;-76
2021/06/19 06:05:14;;;;;;;6.90;5.57;;;;;;;21.55;60.54;100263.31;10390615;28;20242;-75
2021/06/19 06:10:17;;;;;;;8.00;4.95;;;;;;;21.84;60.87;100275.13;10388775;28;20237;-76
2021/06/19 06:15:22;;;;;;;6.20;4.60;;;;;;;22.21;60.84;100275.72;10369873;28;20242;-75
2021/06/19 06:20:25;;;;;;;9.85;5.53;;;;;;;22.46;59.01;100265.97;10392984;28;20237;-76
2021/06/19 06:25:28;;;;;;;5.15;4.05;;;;;;;22.22;58.95;100269.22;10388918;28;21486;-76
2021/06/19 06:30:33;;;;;;;7.30;4.53;;;;;;;22.69;58.98;100276.56;10390479;28;20250;-76
2021/06/19 06:35:36;;;;;;;5.57;4.38;;;;;;;22.45;57.63;100288.06;10389682;28;20731;-75
2021/06/19 06:40:38;;;;;;;5.72;4.20;;;;;;;22.31;57.63;100300.81;10388506;28;20233;-75
2021/06/19 06:45:43;;;;;;;3.90;3.40;;;;;;;22.41;57.24;100292.25;10388251;28;20240;-75
2021/06/19 06:50:46;;;;;;;4.88;3.08;;;;;;;22.63;56.25;100290.25;10381875;28;21299;-74
2021/06/19 06:55:49;;;;;;;5.05;2.90;;;;;;;22.51;56.44;100288.06;10353366;28;20242;-75
2021/06/19 07:00:53;;;;;;;4.20;2.67;;;;;;;22.57;55.27;100278.19;10329285;28;20226;-75
2021/06/19 07:05:56;;;;;;;10.38;2.92;;;;;;;22.88;54.86;100290.50;10346895;28;20238;-75
2021/06/19 07:10:59;;;;;;;2.88;2.55;;;;;;;22.96;54.35;100293.91;10361984;28;20280;-75
2021/06/19 07:16:04;;;;;;;3.95;2.70;;;;;;;22.99;55.29;100289.91;10371551;28;20244;-75
2021/06/19 07:21:07;;;;;;;4.18;3.42;;;;;;;23.20;54.99;100297.09;10357405;28;20372;-75
2021/06/19 07:26:09;;;;;;;3.60;2.63;;;;;;;23.40;54.35;100303.44;10345922;28;20234;-75
2021/06/19 07:31:14;;;;;;;3.15;2.85;;;;;;;23.58;53.44;100302.78;10347599;28;20243;-75
2021/06/19 07:36:17;;;;;;;5.07;3.00;;;;;;;24.17;52.32;100295.53;10345459;28;20372;-73
2021/06/19 07:41:20;;;;;;;2.88;2.17;;;;;;;23.64;51.43;100315.66;10358880;28;20237;-73
2021/06/19 07:46:24;;;;;;;2.88;2.00;;;;;;;23.33;52.39;100308.06;10367054;28;20238;-73
2021/06/19 07:51:32;;;;;;;4.35;2.72;;;;;;;23.48;52.09;100316.09;10353696;28;20226;-73
2021/06/19 07:56:34;;;;;;;2.88;2.40;;;;;;;23.79;52.20;100320.09;10356200;28;20253;-73
2021/06/19 08:01:39;;;;;;;2.97;2.13;;;;;;;24.16;51.49;100317.69;10387312;28;20730;-72
2021/06/19 08:06:42;;;;;;;2.13;2.00;;;;;;;23.75;51.62;100330.63;10366232;28;20722;-72
2021/06/19 08:11:45;;;;;;;2.25;2.00;;;;;;;24.02;51.57;100336.94;10393522;28;20245;-73
2021/06/19 08:16:52;;;;;;;1.67;1.58;;;;;;;24.45;50.80;100330.94;10395879;28;20239;-73
2021/06/19 08:21:55;;;;;;;2.03;1.80;;;;;;;25.31;48.19;100326.03;10394717;28;20237;-73
2021/06/19 08:26:58;;;;;;;1.88;1.77;;;;;;;25.69;46.59;100320.44;10394463;28;20234;-73
2021/06/19 08:32:02;;;;;;;1.70;1.55;;;;;;;25.51;45.85;100317.66;10393052;28;20237;-73
2021/06/19 08:37:06;;;;;;;3.70;2.05;;;;;;;25.27;46.50;100327.56;10392050;28;20849;-73
2021/06/19 08:42:10;;;;;;;2.72;1.90;;;;;;;25.16;47.09;100331.84;10381228;28;20734;-72
2021/06/19 08:47:15;;;;;;;2.65;2.28;;;;;;;24.97;49.12;100328.13;10342867;28;20675;-73
2021/06/19 08:52:18;;;;;;;2.90;2.35;;;;;;;25.35;47.70;100328.13;10369744;28;20234;-73
2021/06/19 08:57:21;;;;;;;2.15;2.00;;;;;;;25.52;47.85;100322.06;10391763;28;20580;-73
2021/06/19 09:02:25;;;;;;;3.85;1.60;;;;;;;25.88;45.47;100317.75;10395676;28;20252;-73
2021/06/19 09:07:38;;;;;;;2.03;1.85;;;;;;;26.09;45.58;100322.81;10392027;28;20234;-74
2021/06/19 09:12:55;;;;;;;2.22;1.70;;;;;;;26.36;44.09;100325.31;10390169;28;20238;-73
2021/06/19 09:18:20;;;;;;;1.92;1.70;;;;;;;26.50;44.71;100335.06;10367880;28;20304;-74
2021/06/19 09:23:29;;;;;;;1.85;1.63;;;;;;;25.97;45.57;100321.88;10373906;28;20261;-75
2021/06/19 09:28:32;;;;;;;2.08;1.90;;;;;;;26.52;44.85;100319.13;10370742;28;20226;-75
2021/06/19 09:33:37;;;;;;;2.97;2.10;;;;;;;27.27;44.03;100307.72;10373731;28;20336;-75
2021/06/19 09:39:03;;;;;;;3.30;1.95;;;;;;;26.94;44.87;100303.56;10389417;28;20719;-75
2021/06/19 09:44:07;;;;;;;2.30;1.80;;;;;;;26.74;43.04;100302.94;10370951;28;20770;-74
2021/06/19 09:49:13;;;;;;;2.30;1.73;;;;;;;27.15;43.78;100295.81;10390096;28;20234;-75
2021/06/19 09:54:17;;;;;;;2.38;1.60;;;;;;;27.25;42.54;100287.78;10389478;28;20272;-75
2021/06/19 09:59:24;;;;;;;3.97;1.40;;;;;;;28.23;41.02;100290.97;10390420;28;20234;-75
2021/06/19 10:04:30;;;;;;;3.00;1.50;;;;;;;28.13;40.77;100283.28;10389329;28;20253;-75
2021/06/19 10:09:35;;;;;;;2.72;1.40;;;;;;;29.12;39.51;100285.81;10392354;28;20241;-75
2021/06/19 10:14:38;;;;;;;1.55;1.45;;;;;;;29.11;39.00;100291.59;10387702;28;21533;-75
2021/06/19 10:19:42;;;;;;;1.60;1.50;;;;;;;28.33;40.51;100290.31;10376477;28;20237;-75
2021/06/19 10:24:47;;;;;;;2.38;1.52;;;;;;;28.18;39.26;100277.03;10387334;28;20238;-75
2021/06/19 10:29:52;;;;;;;3.08;1.60;;;;;;;28.97;38.98;100270.88;10388947;28;20236;-75
2021/06/19 10:34:56;;;;;;;1.85;1.27;;;;;;;30.48;35.56;100264.28;10382498;28;20234;-76
2021/06/19 10:40:21;;;;;;;1.05;1.05;;;;;;;29.94;35.53;100264.97;10368178;28;21046;-74
2021/06/19 10:45:28;;;;;;;1.92;1.30;;;;;;;30.21;36.34;100265.06;10367825;28;20233;-75
2021/06/19 10:50:33;;;;;;;1.83;1.70;;;;;;;29.02;37.80;100254.34;10368217;28;20229;-76
2021/06/19 10:55:52;;;;;;;1.55;1.45;;;;;;;29.77;36.76;100253.94;10367294;28;20598;-76
2021/06/19 11:00:56;;;;;;;1.30;1.30;;;;;;;30.77;34.74;100248.25;10366225;28;20232;-75
2021/06/19 11:06:02;;;;;;;1.55;1.40;;;;;;;29.79;37.10;100245.41;10350979;28;20242;-75
2021/06/19 11:11:05;;;;;;;1.42;1.33;;;;;;;31.28;34.65;100237.66;10349595;28;20249;-75
2021/06/19 11:16:47;;;;;;;1.38;1.27;;;;;;;31.97;32.16;100233.94;10351602;28;20344;-75
2021/06/19 11:22:29;;;;;;;1.05;1.02;;;;;;;31.58;31.68;100217.59;10346084;28;20325;-75
2021/06/19 11:27:54;;;;;;;2.63;0.98;;;;;;;31.52;31.52;100202.03;10364809;28;20791;-74
2021/06/19 11:33:38;;;;;;;0.90;0.68;;;;;;;31.70;28.61;100199.91;10390587;28;20232;-74
2021/06/19 11:38:47;;;;;;;0.93;0.93;;;;;;;31.65;31.77;100194.31;10394001;28;20224;-76
2021/06/19 11:43:50;;;;;;;1.45;1.08;;;;;;;31.81;31.29;100196.09;10399487;28;20586;-75
2021/06/19 11:48:55;;;;;;;1.65;1.20;;;;;;;32.72;30.59;100189.19;10395703;28;20233;-77
2021/06/19 11:54:00;;;;;;;1.35;1.10;;;;;;;32.42;30.54;100181.63;10360005;28;20248;-75
2021/06/19 11:59:05;;;;;;;1.30;1.20;;;;;;;32.21;32.28;100194.63;10392701;28;20309;-76
2021/06/19 12:04:11;;;;;;;1.00;1.00;;;;;;;32.61;30.85;100190.22;10390174;28;20236;-75
2021/06/19 12:09:19;;;;;;;3.70;1.10;;;;;;;33.98;31.03;100188.41;10412530;28;20232;-76
2021/06/19 12:14:25;;;;;;;1.23;1.02;;;;;;;35.05;27.05;100184.16;10399633;28;20237;-76
2021/06/19 12:19:30;;;;;;;1.00;1.00;;;;;;;34.06;26.98;100190.59;10379408;28;20240;-76
2021/06/19 12:24:36;;;;;;;1.80;0.95;;;;;;;33.89;28.55;100177.03;10394098;28;20237;-76
2021/06/19 12:29:42;;;;;;;1.38;1.08;;;;;;;34.38;28.49;100164.28;10394369;28;20744;-76
2021/06/19 12:34:45;;;;;;;2.35;1.20;;;;;;;35.70;26.73;100156.66;10394289;28;20245;-76
2021/06/19 12:39:50;;;;;;;1.08;1.05;;;;;;;34.37;27.59;100155.09;10394864;28;20236;-78
2021/06/19 12:45:05;;;;;;;2.63;1.30;;;;;;;33.03;29.00;100156.63;10395338;28;20710;-77
2021/06/19 12:50:09;;;;;;;1.33;1.13;;;;;;;33.51;29.46;100142.34;10370267;28;20229;-76
2021/06/19 12:55:14;;;;;;;2.10;1.58;;;;;;;34.04;27.64;100144.66;10354481;28;20241;-76
2021/06/19 13:00:18;;;;;;;3.85;1.52;;;;;;;34.97;29.22;100135.38;10387581;28;20356;-75
2021/06/19 13:05:23;;;;;;;3.00;1.17;;;;;;;36.75;25.80;100136.16;10389220;28;20287;-77
2021/06/19 13:10:35;;;;;;;1.20;1.10;;;;;;;37.11;24.89;100142.00;10418273;28;20239;-76
2021/06/19 13:15:57;;;;;;;2.80;1.35;;;;;;;37.55;25.49;100140.63;10413774;28;21844;-75
2021/06/19 13:21:06;;;;;;;2.47;1.20;;;;;;;37.55;26.15;100140.63;10410894;28;20236;-75
2021/06/19 13:26:12;;;;;;;1.15;1.10;;;;;;;38.30;25.42;100133.66;10426257;28;20848;-77
2021/06/19 13:31:17;;;;;;;1.33;1.20;;;;;;;37.38;24.02;100127.22;10434655;28;21376;-73
2021/06/19 13:36:27;;;;;;;1.10;1.10;;;;;;;37.39;25.24;100122.47;10391669;28;20363;-76
2021/06/19 13:41:38;;;;;;;2.53;1.20;;;;;;;37.60;25.14;100126.47;10400183;28;20237;-77
2021/06/19 13:46:42;;;;;;;1.20;1.10;;;;;;;37.53;25.07;100126.09;10391155;28;20245;-76
2021/06/19 13:51:50;;;;;;;1.35;1.25;;;;;;;38.06;24.05;100110.66;10392467;28;20237;-77
2021/06/19 13:56:57;;;;;;;2.03;1.30;;;;;;;38.31;24.41;100115.69;10396106;28;20267;-76
2021/06/19 14:02:00;;;;;;;2.05;1.17;;;;;;;38.84;24.39;100102.91;10403663;28;20268;-77
2021/06/19 14:07:04;;;;;;;2.95;1.48;;;;;;;38.86;23.19;100100.56;10392139;28;20619;-75
2021/06/19 14:12:09;;;;;;;2.33;1.10;;;;;;;37.62;23.64;100106.56;10390271;28;20225;-76
2021/06/19 14:17:12;;;;;;;1.80;1.20;;;;;;;37.10;25.24;100095.53;10394963;28;20233;-75
2021/06/19 14:22:16;;;;;;;1.90;1.10;;;;;;;37.66;24.29;100091.66;10394547;28;20225;-75
2021/06/19 14:27:23;;;;;;;2.58;1.00;;;;;;;38.29;24.92;100089.09;10442345;22;20237;-73
2021/06/19 14:32:28;;;;;;;1.75;1.13;;;;;;;38.94;23.78;100094.22;10430425;28;20192;-74
2021/06/19 14:37:31;;;;;;;1.25;1.15;;;;;;;37.31;24.87;100092.38;10427902;28;20237;-75
2021/06/19 14:42:36;;;;;;;1.20;1.10;;;;;;;35.44;27.62;100086.31;10428405;28;20220;-75
2021/06/19 14:47:41;;;;;;;1.30;1.20;;;;;;;34.69;29.51;100085.97;10427296;28;20209;-75
2021/06/19 14:52:44;;;;;;;1.95;1.17;;;;;;;34.57;29.23;100087.19;10423325;28;20205;-75
2021/06/19 14:57:49;;;;;;;1.30;1.20;;;;;;;35.97;28.74;100082.59;10427294;28;20221;-74
2021/06/19 15:02:52;;;;;;;1.08;1.08;;;;;;;35.98;28.22;100080.63;10426368;28;20200;-73
2021/06/19 15:07:55;;;;;;;1.27;1.10;;;;;;;35.08;28.44;100089.53;10426995;28;20213;-71
2021/06/19 15:12:59;;;;;;;2.88;1.20;;;;;;;34.53;29.47;100096.41;10427031;28;20205;-74
2021/06/19 15:18:02;;;;;;;1.45;1.15;;;;;;;34.10;29.51;100101.75;10426392;28;20221;-72
2021/06/19 15:23:06;;;;;;;2.22;1.10;;;;;;;33.81;30.53;100094.06;10408880;28;20208;-71
2021/06/19 15:28:11;;;;;;;1.67;1.10;;;;;;;33.95;29.65;100094.28;10425120;28;20224;-72
2021/06/19 15:33:13;;;;;;;1.30;1.15;;;;;;;34.77;28.87;100091.75;10425208;28;20196;-72
2021/06/19 15:38:17;;;;;;;1.45;1.27;;;;;;;35.22;28.00;100078.50;10425179;28;20579;-71
2021/06/19 15:43:21;;;;;;;1.30;1.20;;;;;;;35.44;27.76;100082.72;10425228;28;20194;-73
2021/06/19 15:48:25;;;;;;;1.55;1.40;;;;;;;35.04;29.14;100070.88;10422822;28;20315;-73
2021/06/19 15:53:28;;;;;;;1.90;1.30;;;;;;;36.22;26.60;100072.16;10424950;28;20716;-73
2021/06/19 15:58:32;;;;;;;1.70;1.42;;;;;;;35.74;26.69;100064.75;10422972;28;20682;-74
2021/06/19 16:03:35;;;;;;;3.83;1.50;;;;;;;36.65;26.09;100058.88;10407377;28;20200;-73
2021/06/19 16:08:38;;;;;;;1.40;1.30;;;;;;;37.72;25.17;100055.94;10424104;28;20518;-73
2021/06/19 16:13:42;;;;;;;3.08;1.60;;;;;;;37.86;24.78;100041.91;10423680;28;20566;-74
2021/06/19 16:18:46;;;;;;;1.35;1.25;;;;;;;38.46;24.36;100041.56;10423928;28;20693;-74
2021/06/19 16:23:50;;;;;;;2.88;1.60;;;;;;;39.46;23.08;100043.06;10410079;28;20707;-72
2021/06/19 16:28:54;;;;;;;1.50;1.40;;;;;;;39.36;23.03;100035.78;10430490;28;20729;-73
2021/06/19 16:33:57;;;;;;;2.67;1.48;;;;;;;42.30;20.89;100034.34;10412897;28;20214;-74
2021/06/19 16:39:00;;;;;;;1.48;1.38;;;;;;;42.05;20.14;100031.41;10430576;28;20209;-74
2021/06/19 16:44:06;;;;;;;1.45;1.35;;;;;;;43.44;20.37;100019.69;10431176;28;20680;-76
2021/06/19 16:49:09;;;;;;;1.42;1.33;;;;;;;44.97;19.07;100022.47;10413844;28;20213;-76
2021/06/19 16:54:13;;;;;;;5.25;1.58;;;;;;;45.82;18.18;100020.81;10431358;28;20205;-76
2021/06/19 16:59:17;;;;;;;1.40;1.30;;;;;;;46.47;18.18;100008.78;10419878;28;20239;-76
2021/06/19 17:04:20;;;;;;;3.45;1.50;;;;;;;46.13;17.75;100011.34;10430445;28;20194;-75
2021/06/19 17:09:23;;;;;;;1.60;1.20;;;;;;;45.49;18.21;100013.63;10432132;28;20696;-75
2021/06/19 17:14:27;;;;;;;1.48;1.35;;;;;;;45.27;18.33;100008.63;10413640;28;20221;-75
2021/06/19 17:19:31;;;;;;;1.27;1.27;;;;;;;44.77;18.93;100022.38;10431885;28;20571;-75
2021/06/19 17:24:35;;;;;;;2.50;1.58;;;;;;;44.00;19.38;100011.31;10413993;28;20197;-75
2021/06/19 17:29:39;;;;;;;1.75;1.60;;;;;;;42.98;20.61;100004.84;10432429;28;20217;-75
2021/06/19 17:34:42;;;;;;;2.13;1.83;;;;;;;41.85;21.06;100015.31;10431068;28;20201;-74
2021/06/19 17:39:45;;;;;;;1.67;1.58;;;;;;;40.84;22.19;100007.59;10429191;28;20686;-75
2021/06/19 17:44:50;;;;;;;1.98;1.50;;;;;;;40.30;22.47;100004.44;10430383;28;20189;-74
2021/06/19 17:49:53;;;;;;;1.73;1.60;;;;;;;37.38;25.51;100011.56;10432149;28;20228;-75
2021/06/19 17:54:56;;;;;;;2.85;1.90;;;;;;;34.94;28.48;100009.56;10427313;28;20209;-74
2021/06/19 18:00:00;;;;;;;1.95;1.80;;;;;;;33.11;30.29;100002.22;10431822;28;20217;-74
2021/06/19 18:05:05;;;;;;;2.17;2.08;;;;;;;31.94;31.92;100003.13;10429858;28;20177;-75
2021/06/19 18:10:09;;;;;;;2.85;2.42;;;;;;;30.98;33.46;99990.59;10431013;28;20611;-75
2021/06/19 18:15:14;;;;;;;4.40;2.20;;;;;;;30.41;35.28;99992.13;10430772;28;20293;-75
2021/06/19 18:20:18;;;;;;;2.45;2.25;;;;;;;30.09;35.08;99975.50;10431718;28;20217;-75
2021/06/19 18:25:25;;;;;;;2.60;2.40;;;;;;;29.74;36.02;99974.09;10429723;28;20200;-75
2021/06/19 18:30:29;;;;;;;3.05;2.55;;;;;;;29.44;36.97;99955.22;10426040;28;20221;-75
2021/06/19 18:35:33;;;;;;;2.85;2.53;;;;;;;29.25;37.59;99965.78;10410252;28;20627;-76
2021/06/19 18:40:36;;;;;;;2.72;2.53;;;;;;;29.06;38.04;99955.03;10428227;28;20220;-75
2021/06/19 18:45:41;;;;;;;3.63;3.30;;;;;;;28.77;38.97;99951.59;10427287;28;20192;-75
2021/06/19 18:50:44;;;;;;;5.47;3.97;;;;;;;28.58;39.65;99951.06;10428855;28;20217;-75
2021/06/19 18:55:47;;;;;;;6.07;4.95;;;;;;;28.45;39.58;99932.88;10410304;28;20221;-75
2021/06/19 19:00:51;;;;;;;4.10;3.70;;;;;;;28.23;40.17;99920.94;10428061;28;20244;-75
2021/06/19 19:05:55;;;;;;;4.50;3.50;;;;;;;27.97;40.57;99920.53;10427781;28;20186;-75
2021/06/19 19:10:58;;;;;;;3.40;3.10;;;;;;;27.73;41.29;99919.84;10427488;28;20210;-74
2021/06/19 19:16:03;;;;;;;3.42;3.22;;;;;;;27.48;41.76;99922.97;10428098;28;20220;-74
2021/06/19 19:21:07;;;;;;;3.58;3.28;;;;;;;27.37;42.59;99924.69;10410480;28;20249;-75
2021/06/19 19:26:11;;;;;;;3.20;3.00;;;;;;;27.20;42.70;99923.75;10425854;28;20666;-75
2021/06/19 19:31:17;;;;;;;4.38;3.20;;;;;;;27.02;43.25;99922.03;10425866;28;20226;-76
2021/06/19 19:36:20;;;;;;;3.65;3.35;;;;;;;26.97;43.12;99921.94;10426224;28;20202;-76
2021/06/19 19:41:23;;;;;;;4.50;3.65;;;;;;;26.78;43.24;99923.16;10426596;28;20225;-75
2021/06/19 19:46:28;;;;;;;3.97;3.13;;;;;;;26.73;43.86;99927.47;10425969;28;20251;-75
2021/06/19 19:51:31;;;;;;;4.78;3.40;;;;;;;26.62;44.52;99930.25;10426302;28;20248;-75
2021/06/19 19:56:34;;;;;;;6.22;4.88;;;;;;;26.58;44.11;99951.94;10425355;28;20213;-75
2021/06/19 20:01:43;;;;;;;5.13;4.63;;;;;;;26.51;44.08;99960.28;10429993;28;20280;-75
2021/06/19 20:06:46;;;;;;;5.38;4.47;;;;;;;26.46;44.02;99956.59;10432986;28;20194;-74
2021/06/19 20:11:49;;;;;;;4.95;3.80;;;;;;;26.40;44.14;99955.63;10434031;28;20214;-74
2021/06/19 20:16:54;;;;;;;5.32;3.90;;;;;;;26.27;44.44;99937.44;10394432;28;20245;-75
2021/06/19 20:21:57;;;;;;;5.03;3.38;;;;;;;26.19;44.81;99953.44;10392044;28;20246;-74
2021/06/19 20:27:00;;;;;;;3.42;3.13;;;;;;;26.03;45.26;99936.56;10391003;28;20190;-75
2021/06/19 20:32:07;;;;;;;3.28;2.97;;;;;;;25.93;45.09;99933.53;10384410;28;20209;-74
2021/06/19 20:37:10;;;;;;;5.05;3.42;;;;;;;25.82;45.63;99918.69;10390586;28;20223;-73
2021/06/19 20:42:15;;;;;;;4.15;3.33;;;;;;;25.69;45.98;99932.66;10391267;28;20187;-74
2021/06/19 20:47:19;;;;;;;4.10;3.72;;;;;;;25.59;46.26;99915.88;10390772;28;20569;-75
2021/06/19 20:52:22;;;;;;;3.63;3.33;;;;;;;25.60;46.31;99895.53;10349563;28;20243;-75
2021/06/19 20:57:26;;;;;;;4.38;3.53;;;;;;;25.50;46.71;99904.34;10349651;28;20223;-75
2021/06/19 21:02:32;;;;;;;5.03;3.35;;;;;;;25.34;47.37;99908.63;10350683;28;20514;-75
2021/06/19 21:07:35;;;;;;;5.68;3.70;;;;;;;25.24;47.25;99902.84;10349728;28;20219;-76
2021/06/19 21:12:38;;;;;;;5.03;3.58;;;;;;;25.18;47.91;99890.03;10332905;28;20286;-76
2021/06/19 21:17:42;;;;;;;5.03;3.95;;;;;;;25.07;47.84;99880.66;10350084;28;20223;-76
2021/06/19 21:22:46;;;;;;;4.25;3.72;;;;;;;25.07;48.24;99866.94;10350202;28;20199;-76
2021/06/19 21:27:49;;;;;;;4.70;4.30;;;;;;;24.94;48.24;99845.94;10350984;28;20215;-77
2021/06/19 21:32:53;;;;;;;6.57;4.20;;;;;;;24.94;48.47;99829.44;10353764;28;20203;-77
2021/06/19 21:37:56;;;;;;;4.85;3.80;;;;;;;24.84;48.18;99817.34;10351606;28;20605;-77
2021/06/19 21:42:59;;;;;;;3.47;3.17;;;;;;;24.85;48.08;99816.25;10348572;28;20605;-76
2021/06/19 21:48:05;;;;;;;4.30;3.50;;;;;;;24.81;48.08;99804.91;10344999;28;20430;-76
2021/06/19 21:53:08;;;;;;;4.10;3.63;;;;;;;24.70;48.81;99797.44;10347465;28;20199;-76
2021/06/19 21:58:11;;;;;;;4.07;3.70;;;;;;;24.67;48.70;99804.25;10346430;28;20219;-76
2021/06/19 22:03:16;;;;;;;9.70;7.53;;;;;;;24.45;49.60;99808.53;10347040;28;20199;-76
2021/06/19 22:08:20;;;;;;;4.47;4.07;;;;;;;24.26;49.89;99816.75;10344014;28;20215;-76
2021/06/19 22:13:22;;;;;;;4.50;3.58;;;;;;;24.31;49.82;99808.66;10344629;28;20236;-76
2021/06/19 22:18:27;;;;;;;4.65;3.63;;;;;;;24.38;49.37;99816.84;10349751;28;20771;-78
2021/06/19 22:23:30;;;;;;;4.63;4.20;;;;;;;24.32;49.83;99806.75;10350965;28;20196;-77
2021/06/19 22:28:33;;;;;;;4.53;3.53;;;;;;;24.18;50.13;99797.84;10347450;28;20215;-76
2021/06/19 22:33:37;;;;;;;3.50;3.20;;;;;;;24.13;49.83;99791.34;10347328;28;20205;-76
2021/06/19 22:38:40;;;;;;;3.78;3.40;;;;;;;24.16;49.56;99788.16;10346257;28;20238;-76
2021/06/19 22:43:43;;;;;;;4.30;3.45;;;;;;;24.08;49.52;99786.56;10346927;28;20191;-76
2021/06/19 22:48:47;;;;;;;3.53;3.22;;;;;;;24.06;50.27;99758.53;10346137;28;20211;-76
2021/06/19 22:53:53;;;;;;;3.50;3.30;;;;;;;24.00;49.96;99751.22;10346477;28;20604;-76
2021/06/19 22:58:56;;;;;;;3.75;3.45;;;;;;;23.84;50.46;99738.94;10345653;28;20649;-76
2021/06/19 23:04:00;;;;;;;3.72;3.42;;;;;;;23.87;50.83;99720.13;10344903;28;20573;-75
2021/06/19 23:09:04;;;;;;;3.60;3.30;;;;;;;23.81;50.40;99687.28;10328194;28;20226;-76
2021/06/19 23:14:06;;;;;;;3.60;3.30;;;;;;;23.73;50.59;99669.22;10345300;28;20210;-76